Time;durP1;ratioP1;P1;durP2;ratioP2;P2;SDS_P1;SDS_P2;PMS_P1;PMS_P2;Temp;Humidity;BMP_temperature;BMP_pressure;BME280_temperature;BME280_humidity;BME280_pressure;Samples;Min_cycle;Max_cycle;Signal;HPM_P1;HPM_P2
2022/03/05 00:00:12;;;;;;;0.20;0.20;;;;;;;7.67;75.98;99666.94;5057868;28;20030;-73
2022/03/05 00:02:38;;;;;;;0.20;0.20;;;;;;;7.30;78.71;99669.91;5057276;28;20036;-73
2022/03/05 00:05:04;;;;;;;0.20;0.20;;;;;;;7.25;80.23;99672.91;5057441;28;20029;-72
2022/03/05 00:07:29;;;;;;;0.20;0.20;;;;;;;7.12;80.68;99657.50;5041003;28;20460;-73
2022/03/05 00:09:55;;;;;;;0.20;0.20;;;;;;;7.02;81.70;99650.53;5040394;28;20025;-73
2022/03/05 00:12:20;;;;;;;0.20;0.20;;;;;;;6.82;82.52;99621.13;5039810;28;20049;-72
2022/03/05 00:14:46;;;;;;;0.20;0.20;;;;;;;6.74;83.36;99635.88;5039051;28;20029;-72
2022/03/05 00:17:11;;;;;;;0.20;0.20;;;;;;;6.70;85.21;99632.19;5057250;28;20475;-73
2022/03/05 00:19:37;;;;;;;0.20;0.20;;;;;;;6.63;84.98;99624.50;5038791;28;20048;-72
2022/03/05 00:22:03;;;;;;;0.20;0.20;;;;;;;6.68;86.21;99629.78;5057485;28;20037;-72
2022/03/05 00:24:29;;;;;;;0.20;0.20;;;;;;;6.61;86.16;99621.31;5039555;28;20061;-72
2022/03/05 00:26:54;;;;;;;0.20;0.20;;;;;;;6.57;87.18;99626.72;5035494;28;20530;-73
2022/03/05 00:29:20;;;;;;;0.20;0.20;;;;;;;6.34;87.01;99611.81;5036294;28;20041;-73
2022/03/05 00:31:45;;;;;;;0.20;0.20;;;;;;;6.52;87.54;99646.31;5035468;28;20029;-72
2022/03/05 00:34:11;;;;;;;0.20;0.20;;;;;;;6.50;87.90;99643.09;5035526;28;20127;-72
2022/03/05 00:36:38;;;;;;;0.20;0.20;;;;;;;6.49;87.76;99649.75;5038744;28;20063;-73
2022/03/05 00:39:04;;;;;;;0.20;0.20;;;;;;;6.52;87.96;99649.06;5038427;28;20116;-73
2022/03/05 00:41:33;;;;;;;0.20;0.20;;;;;;;6.60;87.75;99650.06;5056847;28;20037;-73
2022/03/05 00:43:59;;;;;;;0.20;0.20;;;;;;;6.49;87.23;99651.72;5056809;28;20375;-73
2022/03/05 00:46:25;;;;;;;0.20;0.20;;;;;;;6.49;86.65;99640.66;5056326;28;20467;-74
2022/03/05 00:48:52;;;;;;;0.20;0.20;;;;;;;6.35;86.20;99624.47;5038843;28;20506;-73
2022/03/05 00:51:18;;;;;;;0.20;0.20;;;;;;;6.41;85.95;99628.59;5038614;28;20395;-74
2022/03/05 00:53:44;;;;;;;0.20;0.20;;;;;;;6.40;85.92;99632.53;5056400;28;20035;-73
2022/03/05 00:56:09;;;;;;;0.20;0.20;;;;;;;6.34;85.59;99610.97;5038675;28;20028;-73
2022/03/05 00:58:35;;;;;;;0.20;0.20;;;;;;;6.38;85.02;99628.47;5038270;28;20418;-73
2022/03/05 01:01:00;;;;;;;0.20;0.20;;;;;;;6.47;85.60;99632.72;5039165;28;20029;-74
2022/03/05 01:03:26;;;;;;;0.20;0.20;;;;;;;6.30;84.99;99606.16;5058071;28;20468;-73
2022/03/05 01:05:53;;;;;;;0.13;0.13;;;;;;;6.43;84.69;99629.03;5042843;28;20035;-73
2022/03/05 01:08:18;;;;;;;0.20;0.20;;;;;;;6.42;84.84;99626.63;5037776;28;20025;-73
2022/03/05 01:10:44;;;;;;;0.20;0.20;;;;;;;6.43;84.85;99625.47;5038744;28;20423;-73
2022/03/05 01:13:09;;;;;;;0.20;0.20;;;;;;;6.45;85.29;99617.66;5056378;28;20037;-72
2022/03/05 01:15:35;;;;;;;0.20;0.20;;;;;;;6.45;84.65;99617.66;5039006;28;20021;-73
2022/03/05 01:18:01;;;;;;;0.20;0.20;;;;;;;6.51;84.35;99622.59;5039867;28;20475;-72
2022/03/05 01:20:26;;;;;;;0.20;0.20;;;;;;;6.45;84.05;99606.59;5038906;28;20049;-73
2022/03/05 01:22:52;;;;;;;0.20;0.20;;;;;;;6.48;83.62;99584.56;5038986;28;20392;-73
2022/03/05 01:25:18;;;;;;;0.20;0.20;;;;;;;6.45;83.93;99601.06;5037815;28;20060;-72
2022/03/05 01:27:44;;;;;;;0.20;0.20;;;;;;;6.46;84.37;99600.72;5037771;28;20494;-73
2022/03/05 01:30:10;;;;;;;0.20;0.20;;;;;;;6.51;83.74;99599.69;5038184;28;20037;-73
2022/03/05 01:32:35;;;;;;;0.20;0.20;;;;;;;6.38;84.59;99584.25;5038325;28;20029;-73
2022/03/05 01:35:02;;;;;;;0.20;0.20;;;;;;;6.35;84.49;99580.25;5037993;28;20025;-73
2022/03/05 01:37:27;;;;;;;0.20;0.20;;;;;;;6.31;84.28;99579.34;5038757;28;20086;-73
2022/03/05 01:39:53;;;;;;;0.20;0.20;;;;;;;6.29;84.66;99576.94;5056991;28;20033;-73
2022/03/05 01:42:22;;;;;;;0.20;0.20;;;;;;;6.26;84.99;99572.09;5039533;28;20029;-73
2022/03/05 01:44:48;;;;;;;0.20;0.20;;;;;;;6.37;84.95;99569.66;5038215;28;20028;-73
2022/03/05 01:47:13;;;;;;;0.20;0.20;;;;;;;6.35;83.99;99565.63;5037815;28;20048;-74
2022/03/05 01:49:39;;;;;;;0.20;0.20;;;;;;;6.34;83.89;99555.72;5037552;28;20036;-73
2022/03/05 01:52:05;;;;;;;0.20;0.20;;;;;;;6.34;84.57;99555.72;5037727;28;20021;-73
2022/03/05 01:54:30;;;;;;;0.20;0.20;;;;;;;6.41;83.76;99555.94;5055709;28;20037;-74
2022/03/05 01:56:58;;;;;;;0.20;0.20;;;;;;;6.35;84.35;99546.28;5037601;28;20407;-74
2022/03/05 01:59:24;;;;;;;0.20;0.20;;;;;;;6.49;83.64;99557.75;5037451;28;20537;-74
2022/03/05 02:01:49;;;;;;;0.20;0.20;;;;;;;6.46;84.04;99552.94;5037463;28;20052;-74
2022/03/05 02:04:15;;;;;;;0.20;0.20;;;;;;;6.46;84.06;99548.22;5055079;28;20467;-73
2022/03/05 02:06:41;;;;;;;0.20;0.20;;;;;;;6.30;83.62;99536.28;5037100;28;20029;-74
2022/03/05 02:09:07;;;;;;;0.20;0.20;;;;;;;6.40;84.71;99565.41;5033927;28;20064;-73
2022/03/05 02:11:32;;;;;;;0.20;0.20;;;;;;;6.28;84.68;99541.34;5035334;28;20112;-73
2022/03/05 02:13:59;;;;;;;0.20;0.20;;;;;;;6.27;84.17;99557.13;5054550;28;20386;-74
2022/03/05 02:16:27;;;;;;;0.20;0.20;;;;;;;6.34;84.19;99561.25;5055117;28;20028;-74
2022/03/05 02:18:58;;;;;;;0.20;0.20;;;;;;;6.45;83.64;99556.88;5037374;28;20581;-74
2022/03/05 02:21:25;;;;;;;0.20;0.20;;;;;;;6.41;84.14;99544.91;5054711;28;20029;-74
2022/03/05 02:23:51;;;;;;;0.30;0.30;;;;;;;6.40;84.23;99549.63;5037281;28;20028;-74
2022/03/05 02:26:17;;;;;;;0.20;0.20;;;;;;;6.46;84.30;99548.22;5036645;28;20052;-73
2022/03/05 02:28:43;;;;;;;0.20;0.20;;;;;;;6.30;84.54;99528.00;5036623;28;20227;-74
2022/03/05 02:31:08;;;;;;;0.20;0.20;;;;;;;6.43;84.59;99537.03;5037116;28;20024;-74
2022/03/05 02:33:34;;;;;;;0.20;0.20;;;;;;;6.44;84.70;99538.66;5036791;28;20037;-74
2022/03/05 02:36:00;;;;;;;0.10;0.10;;;;;;;6.43;84.51;99537.84;5036247;28;20495;-74
2022/03/05 02:38:26;;;;;;;0.20;0.20;;;;;;;6.38;84.86;99534.53;5036785;28;20426;-74
2022/03/05 02:40:52;;;;;;;0.22;0.22;;;;;;;6.40;85.66;99535.00;5054024;28;20040;-74
2022/03/05 02:43:21;;;;;;;0.20;0.20;;;;;;;6.36;85.95;99526.59;5054304;28;20356;-74
2022/03/05 02:45:47;;;;;;;0.20;0.20;;;;;;;6.39;85.04;99530.59;5054128;28;20025;-75
2022/03/05 02:48:15;;;;;;;0.20;0.20;;;;;;;6.36;85.71;99523.84;5054734;28;20478;-74
2022/03/05 02:50:41;;;;;;;0.20;0.20;;;;;;;6.40;85.22;99529.47;5036801;28;20032;-74
2022/03/05 02:53:07;;;;;;;0.20;0.20;;;;;;;6.34;85.76;99523.38;5053901;28;20052;-74
2022/03/05 02:55:36;;;;;;;0.20;0.20;;;;;;;6.35;85.22;99524.19;5036532;28;20509;-75
2022/03/05 02:58:02;;;;;;;0.20;0.20;;;;;;;6.38;85.90;99518.75;5036170;28;20029;-74
2022/03/05 03:00:32;;;;;;;0.22;0.22;;;;;;;6.39;86.15;99527.84;5055205;28;20017;-74
2022/03/05 03:02:58;;;;;;;0.20;0.20;;;;;;;6.25;85.84;99504.19;5036985;28;20029;-74
2022/03/05 03:05:23;;;;;;;0.20;0.20;;;;;;;6.41;85.32;99517.25;5036478;28;20032;-74
2022/03/05 03:07:49;;;;;;;0.20;0.20;;;;;;;6.42;85.55;99516.09;5036529;28;20037;-74
2022/03/05 03:10:16;;;;;;;0.20;0.20;;;;;;;6.30;85.22;99506.69;5035950;28;20079;-74
2022/03/05 03:12:42;;;;;;;0.20;0.20;;;;;;;6.46;85.75;99522.53;5036179;28;20098;-74
2022/03/05 03:15:11;;;;;;;0.20;0.20;;;;;;;6.43;85.35;99512.97;5036431;28;20474;-74
2022/03/05 03:17:48;;;;;;;0.20;0.20;;;;;;;6.34;85.15;99505.97;5054063;28;20120;-74
2022/03/05 03:20:17;;;;;;;0.20;0.20;;;;;;;6.32;85.51;99511.88;5053654;28;20053;-75
2022/03/05 03:22:43;;;;;;;0.20;0.20;;;;;;;6.34;85.23;99509.56;5053390;28;20032;-75
2022/03/05 03:25:10;;;;;;;0.20;0.20;;;;;;;6.35;84.71;99493.81;5053873;28;20056;-75
2022/03/05 03:27:36;;;;;;;0.20;0.20;;;;;;;6.42;84.60;99507.81;5036367;28;20119;-75
2022/03/05 03:30:03;;;;;;;0.20;0.20;;;;;;;6.35;84.95;99505.66;5035697;28;20502;-75
2022/03/05 03:32:28;;;;;;;0.20;0.20;;;;;;;6.29;84.81;99496.81;5035704;28;20075;-75
2022/03/05 03:34:54;;;;;;;0.20;0.20;;;;;;;6.18;85.58;99495.69;5036527;28;20033;-75
2022/03/05 03:37:19;;;;;;;0.20;0.20;;;;;;;6.32;85.11;99498.06;5035831;28;20360;-75
2022/03/05 03:39:45;;;;;;;0.20;0.20;;;;;;;6.18;85.70;99487.41;5035653;28;20037;-75
2022/03/05 03:42:10;;;;;;;0.25;0.25;;;;;;;6.27;85.57;99488.06;5035683;28;20123;-75
2022/03/05 03:44:36;;;;;;;0.20;0.20;;;;;;;6.17;85.36;99491.31;5035954;28;20035;-74
2022/03/05 03:47:03;;;;;;;0.20;0.20;;;;;;;6.11;85.90;99484.41;5053421;28;20048;-75
2022/03/05 03:49:28;;;;;;;0.20;0.20;;;;;;;6.08;86.19;99476.06;5035936;28;20426;-75
2022/03/05 03:51:53;;;;;;;0.20;0.20;;;;;;;6.08;86.40;99485.13;5036104;28;20032;-75
2022/03/05 03:54:19;;;;;;;0.20;0.20;;;;;;;5.93;86.57;99469.28;5035457;28;20368;-74
2022/03/05 03:56:45;;;;;;;0.20;0.20;;;;;;;6.01;86.43;99471.09;5035455;28;20025;-75
2022/03/05 03:59:10;;;;;;;0.20;0.20;;;;;;;6.04;86.69;99486.97;5035341;28;20036;-74
2022/03/05 04:01:36;;;;;;;0.20;0.20;;;;;;;5.81;85.63;99455.50;5035980;28;20036;-75
2022/03/05 04:04:01;;;;;;;0.20;0.20;;;;;;;5.82;86.27;99459.88;5035404;28;20464;-75
2022/03/05 04:08:41;;;;;;;0.20;0.20;;;;;;;6.05;85.53;99485.81;5035298;28;20021;-75
2022/03/05 04:09:12;;;;;;;0.20;0.20;;;;;;;5.91;85.78;99468.78;5053953;28;20037;-74
2022/03/05 04:11:38;;;;;;;0.20;0.20;;;;;;;5.85;86.31;99472.94;5054314;28;20100;-75
2022/03/05 04:14:04;;;;;;;0.20;0.20;;;;;;;5.89;86.31;99468.34;5036102;28;20029;-74
2022/03/05 04:16:29;;;;;;;0.20;0.20;;;;;;;5.87;85.42;99467.91;5035670;28;20116;-75
2022/03/05 04:18:55;;;;;;;0.20;0.20;;;;;;;5.87;85.63;99459.63;5034964;28;20471;-75
2022/03/05 04:21:20;;;;;;;0.20;0.20;;;;;;;5.89;84.94;99462.81;5035774;28;20099;-75
2022/03/05 04:23:46;;;;;;;0.10;0.10;;;;;;;5.88;85.29;99466.75;5035528;28;20036;-75
2022/03/05 04:26:11;;;;;;;0.20;0.20;;;;;;;5.81;85.21;99470.09;5035723;28;20106;-75
2022/03/05 04:28:37;;;;;;;0.20;0.20;;;;;;;5.84;84.98;99474.09;5053095;28;20025;-75
2022/03/05 04:31:02;;;;;;;0.20;0.20;;;;;;;5.81;84.50;99472.88;5035250;28;20539;-75
2022/03/05 04:33:28;;;;;;;0.20;0.20;;;;;;;5.88;85.09;99472.28;5036308;28;20040;-75
2022/03/05 04:35:57;;;;;;;0.20;0.20;;;;;;;5.84;84.19;99471.34;5056137;28;20040;-75
2022/03/05 04:38:23;;;;;;;0.20;0.20;;;;;;;5.67;84.17;99455.84;5056875;28;20033;-75
2022/03/05 04:40:48;;;;;;;0.20;0.20;;;;;;;5.83;84.06;99469.75;5038719;28;20021;-75
2022/03/05 04:43:14;;;;;;;0.20;0.20;;;;;;;5.76;82.97;99471.16;5056884;28;20064;-75
2022/03/05 04:45:40;;;;;;;0.20;0.20;;;;;;;5.60;82.81;99456.44;5038812;28;20384;-75
2022/03/05 04:48:06;;;;;;;0.20;0.20;;;;;;;5.76;83.26;99460.09;5039149;28;20029;-75
2022/03/05 04:50:31;;;;;;;0.20;0.20;;;;;;;5.59;82.74;99443.78;5056142;28;20052;-75
2022/03/05 04:52:57;;;;;;;0.20;0.20;;;;;;;5.64;83.00;99457.34;5056703;28;20029;-75
2022/03/05 04:55:22;;;;;;;0.20;0.20;;;;;;;5.42;82.81;99433.81;5038396;28;20048;-75
2022/03/05 04:57:48;;;;;;;0.20;0.20;;;;;;;5.59;81.91;99457.56;5038984;28;20029;-75
2022/03/05 05:00:14;;;;;;;0.20;0.20;;;;;;;5.58;82.14;99453.22;5056291;28;20372;-75
2022/03/05 05:02:39;;;;;;;0.20;0.20;;;;;;;5.51;81.82;99447.47;5056754;28;20063;-75
2022/03/05 05:05:05;;;;;;;0.20;0.20;;;;;;;5.59;80.29;99459.53;5038533;28;20170;-75
2022/03/05 05:07:31;;;;;;;0.20;0.20;;;;;;;5.58;80.17;99455.19;5038177;28;20040;-75
2022/03/05 05:09:57;;;;;;;0.20;0.20;;;;;;;5.57;80.03;99450.81;5038766;28;20036;-75
2022/03/05 05:12:23;;;;;;;0.30;0.30;;;;;;;5.55;79.63;99447.59;5038119;28;20036;-75
2022/03/05 05:14:48;;;;;;;0.20;0.20;;;;;;;5.53;80.18;99451.50;5038346;28;20114;-75
2022/03/05 05:17:14;;;;;;;0.20;0.20;;;;;;;5.52;80.84;99465.66;5038249;28;20472;-75
2022/03/05 05:19:40;;;;;;;0.20;0.20;;;;;;;5.55;80.82;99456.69;5038169;28;20061;-75
2022/03/05 05:22:06;;;;;;;0.20;0.20;;;;;;;5.58;81.29;99463.44;5038530;28;20405;-75
2022/03/05 05:24:33;;;;;;;0.20;0.20;;;;;;;5.52;80.81;99465.66;5038328;28;20119;-76
2022/03/05 05:27:00;;;;;;;0.20;0.20;;;;;;;5.63;81.09;99460.47;5055863;28;20095;-75
2022/03/05 05:29:26;;;;;;;0.20;0.20;;;;;;;5.51;80.58;99458.53;5038391;28;20047;-76
2022/03/05 05:31:52;;;;;;;0.20;0.20;;;;;;;5.56;80.98;99460.25;5055053;28;20456;-75
2022/03/05 05:34:19;;;;;;;0.20;0.20;;;;;;;5.57;80.53;99457.13;5037710;28;20391;-76
2022/03/05 05:36:47;;;;;;;0.20;0.20;;;;;;;5.49;79.20;99460.84;5038010;28;20123;-75
2022/03/05 05:39:13;;;;;;;0.20;0.20;;;;;;;5.39;79.14;99440.03;5056081;28;20033;-75
2022/03/05 05:41:42;;;;;;;0.20;0.20;;;;;;;5.37;79.12;99436.00;5037986;28;20061;-75
2022/03/05 05:44:10;;;;;;;0.20;0.20;;;;;;;5.51;77.79;99436.44;5056119;28;20029;-75
2022/03/05 05:46:37;;;;;;;0.20;0.20;;;;;;;5.55;78.59;99442.88;5037521;28;20029;-75
2022/03/05 05:49:03;;;;;;;0.20;0.20;;;;;;;5.48;78.30;99448.97;5056210;28;20028;-75
2022/03/05 05:51:29;;;;;;;0.20;0.20;;;;;;;5.43;77.83;99434.59;5057687;28;20039;-76
2022/03/05 05:53:56;;;;;;;0.10;0.10;;;;;;;5.55;77.75;99450.38;5040324;28;20116;-76
2022/03/05 05:56:22;;;;;;;0.20;0.20;;;;;;;5.46;77.65;99443.00;5038233;28;20083;-75
2022/03/05 05:58:49;;;;;;;0.15;0.15;;;;;;;5.56;77.54;99438.97;5037945;28;20021;-75
2022/03/05 06:01:15;;;;;;;0.20;0.20;;;;;;;5.51;78.07;99444.72;5037863;28;20486;-76
2022/03/05 06:03:41;;;;;;;0.20;0.20;;;;;;;5.30;77.76;99424.75;5055365;28;20531;-75
2022/03/05 06:06:09;;;;;;;0.20;0.20;;;;;;;5.47;78.14;99441.03;5037451;28;20175;-75
2022/03/05 06:08:35;;;;;;;0.20;0.20;;;;;;;5.46;77.96;99448.53;5037704;28;20534;-75
2022/03/05 06:11:00;;;;;;;0.20;0.20;;;;;;;5.43;77.00;99440.13;5037042;28;20122;-75
2022/03/05 06:13:28;;;;;;;0.20;0.20;;;;;;;5.45;77.86;99437.84;5037317;28;20112;-75
2022/03/05 06:15:54;;;;;;;0.20;0.20;;;;;;;5.49;77.72;99441.53;5037136;28;20135;-75
2022/03/05 06:18:22;;;;;;;0.20;0.20;;;;;;;5.48;78.08;99448.16;5054967;28;20037;-75
2022/03/05 06:20:48;;;;;;;0.20;0.20;;;;;;;5.46;78.30;99437.50;5036138;28;20060;-75
2022/03/05 06:23:18;;;;;;;0.20;0.20;;;;;;;5.49;78.67;99436.81;5036869;28;20029;-75
2022/03/05 06:25:44;;;;;;;0.20;0.20;;;;;;;5.51;78.78;99436.44;5054561;28;20036;-75
2022/03/05 06:28:10;;;;;;;0.20;0.20;;;;;;;5.54;78.15;99446.81;5054626;28;20071;-75
2022/03/05 06:30:35;;;;;;;0.20;0.20;;;;;;;5.36;77.87;99446.22;5036656;28;20056;-74
2022/03/05 06:33:01;;;;;;;0.20;0.20;;;;;;;5.16;78.25;99436.91;5036816;28;20029;-74
2022/03/05 06:35:27;;;;;;;0.20;0.20;;;;;;;5.10;79.76;99445.78;5036582;28;20483;-75
2022/03/05 06:37:52;;;;;;;0.20;0.20;;;;;;;5.09;81.15;99442.22;5054512;28;20356;-75
2022/03/05 06:40:18;;;;;;;0.20;0.20;;;;;;;5.00;81.65;99427.72;5036300;28;20029;-75
2022/03/05 06:42:45;;;;;;;0.22;0.22;;;;;;;5.02;82.08;99442.00;5054288;28;20033;-75
2022/03/05 06:45:11;;;;;;;0.20;0.20;;;;;;;5.01;82.46;99440.38;5036278;28;20095;-75
2022/03/05 06:47:38;;;;;;;0.20;0.20;;;;;;;5.09;82.34;99439.47;5036889;28;20033;-74
2022/03/05 06:50:05;;;;;;;0.20;0.20;;;;;;;4.94;82.28;99431.84;5053978;28;20068;-75
2022/03/05 06:52:31;;;;;;;0.20;0.20;;;;;;;5.00;83.37;99438.75;5054207;28;20040;-75
2022/03/05 06:54:57;;;;;;;0.20;0.20;;;;;;;4.97;81.38;99425.66;5036523;28;20037;-74
2022/03/05 06:57:23;;;;;;;0.20;0.20;;;;;;;5.09;80.35;99439.47;5053543;28;20054;-75
2022/03/05 06:59:49;;;;;;;0.15;0.15;;;;;;;4.95;80.51;99430.72;5036395;28;20037;-75
2022/03/05 07:02:15;;;;;;;0.20;0.20;;;;;;;4.90;79.66;99428.19;5036870;28;20094;-74
2022/03/05 07:04:41;;;;;;;0.20;0.20;;;;;;;5.02;80.57;99435.66;5036500;28;20044;-74
2022/03/05 07:07:07;;;;;;;0.20;0.20;;;;;;;5.07;81.89;99430.72;5054343;28;20479;-74
2022/03/05 07:09:32;;;;;;;0.20;0.20;;;;;;;5.29;82.28;99434.19;5036387;28;20087;-74
2022/03/05 07:11:58;;;;;;;0.20;0.20;;;;;;;5.23;80.44;99437.16;5036446;28;20021;-74
2022/03/05 07:14:24;;;;;;;0.20;0.20;;;;;;;5.22;81.00;99429.25;5036260;28;20509;-74
2022/03/05 07:16:49;;;;;;;0.20;0.20;;;;;;;5.28;81.54;99438.09;5036144;28;20120;-75
2022/03/05 07:19:15;;;;;;;0.20;0.20;;;;;;;5.45;80.79;99437.84;5035802;28;20071;-75
2022/03/05 07:21:41;;;;;;;0.20;0.20;;;;;;;5.60;80.54;99439.91;5037176;28;20041;-75
2022/03/05 07:24:08;;;;;;;0.20;0.20;;;;;;;5.58;80.17;99433.91;5036073;28;20127;-75
2022/03/05 07:26:34;;;;;;;0.20;0.20;;;;;;;5.56;78.60;99427.13;5035686;28;20031;-74
2022/03/05 07:28:59;;;;;;;0.20;0.20;;;;;;;5.69;76.66;99432.25;5035747;28;20036;-74
2022/03/05 07:31:25;;;;;;;0.30;0.30;;;;;;;5.65;77.26;99434.13;5036273;28;20029;-75
2022/03/05 07:33:50;;;;;;;0.20;0.20;;;;;;;5.69;76.35;99423.19;5035737;28;20598;-75
2022/03/05 07:36:16;;;;;;;0.20;0.20;;;;;;;5.84;74.11;99439.03;5036035;28;20025;-74
2022/03/05 07:38:44;;;;;;;0.20;0.20;;;;;;;5.85;73.88;99434.31;5035613;28;20115;-74
2022/03/05 07:41:10;;;;;;;0.30;0.30;;;;;;;6.03;73.23;99430.94;5035906;28;20025;-74
2022/03/05 07:43:36;;;;;;;0.20;0.20;;;;;;;6.08;73.99;99431.88;5036210;28;20032;-74
2022/03/05 07:46:02;;;;;;;0.20;0.20;;;;;;;6.15;73.05;99430.09;5035736;28;20482;-74
2022/03/05 07:48:27;;;;;;;0.20;0.20;;;;;;;6.42;69.66;99438.72;5035563;28;20032;-74
2022/03/05 07:50:53;;;;;;;0.20;0.20;;;;;;;6.32;69.60;99436.47;5036416;28;20029;-74
2022/03/05 07:53:19;;;;;;;0.20;0.20;;;;;;;6.35;69.44;99444.88;5035199;28;20098;-74
2022/03/05 07:55:45;;;;;;;0.20;0.20;;;;;;;6.37;70.06;99441.75;5035397;28;20541;-74
2022/03/05 07:58:10;;;;;;;0.20;0.20;;;;;;;6.32;68.72;99442.00;5053381;28;20071;-74
2022/03/05 08:00:36;;;;;;;0.20;0.20;;;;;;;6.44;69.26;99441.94;5035461;28;20087;-74
2022/03/05 08:03:02;;;;;;;0.20;0.20;;;;;;;6.46;69.11;99450.69;5035474;28;20029;-74
2022/03/05 08:05:27;;;;;;;0.20;0.20;;;;;;;6.45;69.06;99440.78;5035385;28;20025;-74
2022/03/05 08:07:54;;;;;;;0.10;0.10;;;;;;;6.39;68.85;99428.38;5035522;28;20080;-74
2022/03/05 08:10:20;;;;;;;0.20;0.20;;;;;;;6.42;66.60;99452.53;5055319;28;20028;-74
2022/03/05 08:12:46;;;;;;;0.20;0.20;;;;;;;6.50;67.41;99455.16;5039220;28;20028;-74
2022/03/05 08:15:12;;;;;;;0.20;0.20;;;;;;;6.38;66.36;99444.16;5056977;28;20029;-74
2022/03/05 08:17:50;;;;;;;0.20;0.20;;;;;;;6.44;66.38;99444.69;5039357;28;20040;-74
2022/03/05 08:20:16;;;;;;;0.20;0.20;;;;;;;6.53;66.05;99439.81;5038591;28;20045;-73
2022/03/05 08:22:41;;;;;;;0.20;0.20;;;;;;;6.64;65.56;99442.88;5039047;28;20483;-74
2022/03/05 08:25:07;;;;;;;0.20;0.20;;;;;;;6.48;65.27;99435.34;5038684;28;20057;-74
2022/03/05 08:27:33;;;;;;;0.10;0.10;;;;;;;6.65;64.85;99438.94;5038861;28;20032;-73
2022/03/05 08:29:58;;;;;;;0.20;0.20;;;;;;;6.70;65.11;99435.91;5038994;28;20120;-74
2022/03/05 08:32:24;;;;;;;0.20;0.20;;;;;;;6.87;65.45;99434.75;5056617;28;20163;-74
2022/03/05 08:34:49;;;;;;;0.20;0.20;;;;;;;6.79;64.94;99423.53;5039442;28;20470;-73
2022/03/05 08:37:15;;;;;;;0.20;0.20;;;;;;;6.98;65.71;99447.72;5038786;28;20049;-74
2022/03/05 08:39:40;;;;;;;0.20;0.20;;;;;;;7.06;65.27;99441.19;5057210;28;20037;-74
2022/03/05 08:42:07;;;;;;;0.20;0.20;;;;;;;7.10;64.52;99441.28;5057890;28;20032;-74
2022/03/05 08:44:33;;;;;;;0.20;0.20;;;;;;;7.08;63.70;99438.06;5039086;28;20036;-73
2022/03/05 08:46:59;;;;;;;0.20;0.20;;;;;;;7.08;62.16;99446.38;5039118;28;20025;-74
2022/03/05 08:49:27;;;;;;;0.20;0.20;;;;;;;6.98;62.52;99416.50;5038225;28;20076;-73
2022/03/05 08:51:53;;;;;;;0.20;0.20;;;;;;;7.15;62.64;99429.16;5038680;28;20025;-73
2022/03/05 08:54:20;;;;;;;0.20;0.20;;;;;;;7.27;63.01;99432.63;5038764;28;20097;-74
2022/03/05 08:56:46;;;;;;;0.20;0.20;;;;;;;7.29;62.12;99432.25;5038859;28;20047;-73
2022/03/05 08:59:12;;;;;;;0.20;0.20;;;;;;;7.26;62.41;99427.44;5038395;28;20475;-74
2022/03/05 09:01:37;;;;;;;0.20;0.20;;;;;;;7.45;62.81;99412.84;5038575;28;20035;-74
2022/03/05 09:04:04;;;;;;;0.20;0.20;;;;;;;7.56;62.82;99427.72;5037971;28;20067;-74
2022/03/05 09:06:29;;;;;;;0.20;0.20;;;;;;;7.60;61.96;99418.34;5056119;28;20028;-74
2022/03/05 09:08:56;;;;;;;0.20;0.20;;;;;;;7.58;60.92;99428.19;5038805;28;20436;-73
2022/03/05 09:11:22;;;;;;;0.20;0.20;;;;;;;7.46;61.06;99409.75;5038476;28;20032;-74
2022/03/05 09:13:48;;;;;;;0.20;0.20;;;;;;;7.44;59.85;99425.09;5056099;28;20450;-74
2022/03/05 09:16:14;;;;;;;0.20;0.20;;;;;;;7.60;60.25;99417.56;5037975;28;20029;-73
2022/03/05 09:18:39;;;;;;;0.20;0.20;;;;;;;7.51;59.35;99414.16;5038225;28;20036;-72
2022/03/05 09:21:05;;;;;;;0.20;0.20;;;;;;;7.56;60.18;99424.97;5036458;28;20399;-74
2022/03/05 09:23:30;;;;;;;0.20;0.20;;;;;;;7.59;59.48;99432.56;5038415;28;20032;-74
2022/03/05 09:25:56;;;;;;;0.10;0.10;;;;;;;7.42;59.72;99421.91;5038059;28;20051;-76
2022/03/05 09:28:21;;;;;;;0.20;0.20;;;;;;;7.53;59.89;99422.94;5038283;28;20048;-74
2022/03/05 09:30:47;;;;;;;0.20;0.20;;;;;;;7.66;59.92;99421.63;5038531;28;20024;-74
2022/03/05 09:33:12;;;;;;;0.20;0.20;;;;;;;7.76;59.42;99421.06;5037499;28;20021;-73
2022/03/05 09:35:41;;;;;;;0.20;0.20;;;;;;;7.73;57.89;99421.81;5037773;28;20037;-74
2022/03/05 09:38:07;;;;;;;0.20;0.20;;;;;;;7.79;58.66;99419.56;5055634;28;20094;-73
2022/03/05 09:40:33;;;;;;;0.20;0.20;;;;;;;7.78;58.38;99427.06;5037609;28;20413;-73
2022/03/05 09:43:01;;;;;;;0.20;0.20;;;;;;;7.95;58.92;99422.28;5037556;28;20029;-73
2022/03/05 09:45:27;;;;;;;0.20;0.20;;;;;;;7.97;58.30;99433.78;5037638;28;20123;-72
2022/03/05 09:47:54;;;;;;;0.20;0.20;;;;;;;7.94;58.32;99421.47;5038021;28;20116;-73
2022/03/05 09:50:20;;;;;;;0.20;0.20;;;;;;;7.84;57.98;99428.38;5037481;28;20068;-72
2022/03/05 09:52:46;;;;;;;0.20;0.20;;;;;;;7.83;58.16;99414.91;5037684;28;20067;-73
2022/03/05 09:55:11;;;;;;;0.20;0.20;;;;;;;7.85;57.15;99421.69;5054953;28;20387;-73
2022/03/05 09:57:37;;;;;;;0.20;0.20;;;;;;;7.90;57.46;99426.13;5037105;28;20025;-73
2022/03/05 10:00:04;;;;;;;0.20;0.20;;;;;;;7.98;58.08;99421.53;5037779;28;20033;-72
2022/03/05 10:02:30;;;;;;;0.20;0.20;;;;;;;8.04;57.75;99420.06;5055049;28;20025;-73
2022/03/05 10:05:31;;;;;;;0.20;0.20;;;;;;;8.08;56.48;99421.75;5037921;28;20121;-72
2022/03/05 10:08:13;;;;;;;0.20;0.20;;;;;;;8.06;56.92;99417.75;4978304;28;20030;-73
2022/03/05 10:10:47;;;;;;;0.20;0.20;;;;;;;8.09;57.37;99425.31;5026635;28;20073;-74
2022/03/05 10:13:28;;;;;;;0.20;0.20;;;;;;;8.18;56.67;99420.38;5037678;28;20141;-73
2022/03/05 10:15:56;;;;;;;0.20;0.20;;;;;;;8.06;55.55;99413.00;5036957;28;20037;-73
2022/03/05 10:18:40;;;;;;;0.20;0.20;;;;;;;8.20;55.89;99418.03;5037107;28;20502;-74
2022/03/05 10:21:09;;;;;;;0.10;0.10;;;;;;;8.11;55.00;99407.19;5054594;28;20060;-73
2022/03/05 10:23:37;;;;;;;0.20;0.20;;;;;;;8.06;55.15;99406.69;5054704;28;20498;-73
2022/03/05 10:26:07;;;;;;;0.20;0.20;;;;;;;8.20;56.07;99408.91;5037258;28;20033;-74
2022/03/05 10:28:37;;;;;;;0.20;0.20;;;;;;;8.26;55.98;99408.28;5036554;28;20128;-74
2022/03/05 10:31:11;;;;;;;0.20;0.20;;;;;;;8.45;55.49;99412.22;5055118;28;20029;-74
2022/03/05 10:33:37;;;;;;;0.20;0.20;;;;;;;8.47;55.03;99409.84;5035832;28;20032;-74
2022/03/05 10:36:17;;;;;;;0.20;0.20;;;;;;;8.23;53.87;99411.75;5054192;28;20031;-74
2022/03/05 10:38:48;;;;;;;0.20;0.20;;;;;;;8.06;54.75;99393.63;5054826;28;20375;-74
2022/03/05 10:41:17;;;;;;;0.20;0.20;;;;;;;8.46;55.19;99420.16;5036888;28;20021;-74
2022/03/05 10:44:05;;;;;;;0.20;0.20;;;;;;;8.38;54.86;99422.00;5054813;28;20021;-74
2022/03/05 10:46:47;;;;;;;0.20;0.20;;;;;;;8.37;54.48;99423.16;5036732;28;20087;-74
2022/03/05 10:49:18;;;;;;;0.20;0.20;;;;;;;8.45;54.89;99413.00;5036355;28;20033;-72
2022/03/05 10:51:51;;;;;;;0.20;0.20;;;;;;;8.43;54.62;99417.31;5036306;28;20025;-73
2022/03/05 10:54:27;;;;;;;0.20;0.20;;;;;;;8.63;54.32;99410.59;5054455;28;20029;-74
2022/03/05 10:57:05;;;;;;;0.20;0.20;;;;;;;8.96;54.30;99398.06;5036400;28;20040;-74
2022/03/05 10:59:39;;;;;;;0.20;0.20;;;;;;;8.98;54.17;99412.38;5036187;28;20033;-74
2022/03/05 11:02:06;;;;;;;0.20;0.20;;;;;;;8.68;53.13;99410.25;5054559;28;20027;-73
2022/03/05 11:04:39;;;;;;;0.20;0.20;;;;;;;8.75;53.35;99410.41;5036075;28;20040;-73
2022/03/05 11:07:06;;;;;;;0.20;0.20;;;;;;;8.71;52.84;99403.19;5036090;28;20028;-73
2022/03/05 11:09:34;;;;;;;0.20;0.20;;;;;;;8.49;53.58;99413.09;5053585;28;20033;-74
2022/03/05 11:12:00;;;;;;;0.20;0.20;;;;;;;8.63;53.34;99410.59;5036088;28;20460;-73
2022/03/05 11:14:27;;;;;;;0.20;0.20;;;;;;;8.88;53.14;99413.78;5035968;28;20029;-72
2022/03/05 11:16:54;;;;;;;0.20;0.20;;;;;;;8.65;53.42;99405.47;5053487;28;20029;-73
2022/03/05 11:19:22;;;;;;;0.20;0.20;;;;;;;8.41;52.96;99401.03;5036462;28;20041;-73
2022/03/05 11:21:47;;;;;;;0.20;0.20;;;;;;;8.66;53.56;99412.59;5035867;28;20032;-73
2022/03/05 11:24:16;;;;;;;0.20;0.20;;;;;;;8.30;53.15;99400.81;5053426;28;20029;-73
2022/03/05 11:26:42;;;;;;;0.20;0.20;;;;;;;8.42;52.34;99396.31;5035960;28;20028;-73
2022/03/05 11:29:07;;;;;;;0.20;0.20;;;;;;;8.63;52.65;99393.94;5035826;28;20028;-73
2022/03/05 11:31:35;;;;;;;0.20;0.20;;;;;;;8.74;52.93;99396.91;5036306;28;20032;-73
2022/03/05 11:34:22;;;;;;;0.20;0.20;;;;;;;9.23;52.03;99393.34;5035868;28;20131;-73
2022/03/05 11:36:50;;;;;;;0.20;0.20;;;;;;;9.29;51.49;99392.66;5036386;28;20116;-73
2022/03/05 11:39:21;;;;;;;0.20;0.20;;;;;;;8.89;50.82;99390.41;5037208;28;20036;-73